Flight Track Log - Related Links

Times and Time Zones

All times are in EDT time to prevent confusion due to time zone crossing. See the KAP16 flight status page for this flight to view local times or setup timezone preferences in your user account.


Time Position Orientation Groundspeed Altitude Reporting Facility
EDT Latitude Longitude Course Direction KTS MPH feet Rate Location/Type
Wed 03:27:56 PM 38.7500 -90.3000 335° Northwest 129 148 1,900  Level Gateway (St. Louis) TRACON
Wed 03:28:56 PM 38.7667 -90.2833 38° Northeast 139 160 2,900 950 Climbing Gateway (St. Louis) TRACON
Wed 03:29:56 PM 38.8167 -90.2667 15° North 146 168 3,800 667 Climbing Gateway (St. Louis) TRACON
Wed 03:31:02 PM 38.8500 -90.2667 360° North 149 171 4,300 429 Climbing Gateway (St. Louis) TRACON
Wed 03:32:02 PM 38.9000 -90.2667 360° North 152 175 4,700 429 Climbing Gateway (St. Louis) TRACON
Wed 03:33:00 PM 38.9373 -90.4990 335° Northwest  Level FlightAware Approximate
Wed 03:33:08 PM 38.9500 -90.2667 360° North 153 176 5,200  Level Gateway (St. Louis) TRACON
Wed 03:34:20 PM 38.9867 -90.2739 351° North 154 177 5,700 403 Climbing Kansas City Center
Wed 03:35:22 PM 39.0231 -90.3064 325° Northwest 158 182 6,100 145 Climbing Kansas City Center
Wed 03:36:24 PM 39.0611 -90.3400 326° Northwest 163 188 6,000 339 Descending Kansas City Center
Wed 03:37:26 PM 39.1036 -90.3847 321° Northwest 163 188 6,800 677 Climbing Kansas City Center
Wed 03:38:28 PM 39.1325 -90.4186 318° Northwest 147 169 7,400 581 Climbing Kansas City Center
Wed 03:39:30 PM 39.1650 -90.4475 325° Northwest 142 163 8,000 290 Climbing Kansas City Center
Wed 03:40:32 PM 39.2003 -90.4786 326° Northwest 150 173 8,000  Level Kansas City Center
Wed 03:41:34 PM 39.2392 -90.5147 324° Northwest 164 189 8,000  Level Kansas City Center
Wed 03:42:36 PM 39.2806 -90.5461 330° Northwest 172 198 8,000  Level Kansas City Center
Wed 03:43:38 PM 39.3242 -90.5889 323° Northwest 167 192 8,000  Level Kansas City Center
Wed 03:44:40 PM 39.3603 -90.6214 325° Northwest 160 184 8,000  Level Kansas City Center
Wed 03:45:42 PM 39.3950 -90.6600 319° Northwest 163 188 8,000  Level Kansas City Center
Wed 03:46:45 PM 39.4319 -90.6894 328° Northwest 159 183 8,000  Level Kansas City Center
Wed 03:47:46 PM 39.4700 -90.7208 328° Northwest 161 185 8,000  Level Kansas City Center
Wed 03:48:48 PM 39.5081 -90.7506 329° Northwest 160 184 8,000  Level Kansas City Center
Wed 03:49:50 PM 39.5503 -90.7906 324° Northwest 158 182 8,000 -145 Level Kansas City Center
Wed 03:50:52 PM 39.5892 -90.8231 327° Northwest 163 188 7,700 -435 Descending Kansas City Center
Wed 03:51:54 PM 39.6269 -90.8625 321° Northwest 171 197 7,100 -629 Descending Kansas City Center
Wed 03:52:56 PM 39.6694 -90.9003 326° Northwest 181 208 6,400 -720 Descending Kansas City Center
Wed 03:53:59 PM 39.7133 -90.9322 331° Northwest 181 208 5,600 -762 Descending Kansas City Center

Login

Don't have an account? Register now (free) for customized features, flight alerts, and more!